Terminal Aerodrome Forecast
Issued by NWS Sterling, VA

Home | Current Version | Previous Version | Text Only | Print | Product List | Glossary On
Versions: 1 2 3 4 5 6 7 8 9 10 11 12 13 14 15 16 17 18 19 20 21
000
FTUS41 KLWX 070853 AAA
TAFMRB
TAF AMD
KMRB 070853Z 0709/0806 00000KT 3SM BR BKN020
      TEMPO 0709/0712 1 1/2SM BR BKN010
     FM071400 00000KT 3SM BR BKN035
     FM071500 00000KT P6SM BKN035
     FM072200 14004KT P6SM SCT045
     FM080400 00000KT 6SM BR SCT050=

USA.gov is the U.S. government's official web portal to all federal, state and local government web resources and services.